Time;durP1;ratioP1;P1;durP2;ratioP2;P2;SDS_P1;SDS_P2;PMS_P1;PMS_P2;Temp;Humidity;BMP_temperature;BMP_pressure;BME280_temperature;BME280_humidity;BME280_pressure;Samples;Min_cycle;Max_cycle;Signal;HPM_P1;HPM_P2
2022/04/19 00:00:51;;;;;;;7.30;6.00;;;;;;;;;;5069350;28;20119;-69
2022/04/19 00:03:17;;;;;;;7.97;5.75;;;;;;;;;;5069123;28;20048;-69
2022/04/19 00:05:43;;;;;;;8.93;6.22;;;11.40;92.70;;;;;;5070546;28;20037;-69
2022/04/19 00:08:10;;;;;;;8.73;6.30;;;11.50;92.40;;;;;;5070154;28;20514;-69
2022/04/19 00:10:36;;;;;;;8.90;5.60;;;;;;;;;;5072170;28;20041;-69
2022/04/19 00:13:04;;;;;;;12.20;6.40;;;11.60;92.20;;;;;;5074274;28;20102;-69
2022/04/19 00:15:30;;;;;;;9.93;6.10;;;11.40;92.10;;;;;;5072785;28;20044;-69
2022/04/19 00:18:00;;;;;;;12.25;7.10;;;11.50;92.40;;;;;;5073201;28;20041;-69
2022/04/19 00:20:28;;;;;;;10.32;6.03;;;11.50;93.10;;;;;;5073366;28;20080;-69
2022/04/19 00:22:54;;;;;;;11.55;6.90;;;;;;;;;;5072717;28;20075;-69
2022/04/19 00:25:20;;;;;;;10.27;6.78;;;11.50;93.80;;;;;;5073980;28;20127;-69
2022/04/19 00:27:47;;;;;;;9.85;6.68;;;;;;;;;;5072521;28;20124;-69
2022/04/19 00:30:13;;;;;;;10.38;6.85;;;11.40;92.60;;;;;;5071466;28;20094;-68
2022/04/19 00:32:39;;;;;;;10.82;6.88;;;;;;;;;;5072547;28;20040;-70
2022/04/19 00:35:08;;;;;;;10.30;6.60;;;11.30;92.90;;;;;;5055991;28;20048;-69
2022/04/19 00:37:34;;;;;;;9.32;6.57;;;11.20;92.70;;;;;;5072654;28;20452;-69
2022/04/19 00:40:04;;;;;;;10.40;7.18;;;11.10;94.00;;;;;;5054839;28;20040;-69
2022/04/19 00:42:31;;;;;;;9.13;6.78;;;11.10;93.10;;;;;;5072167;28;20052;-69
2022/04/19 00:44:58;;;;;;;11.93;7.63;;;11.10;93.60;;;;;;5072645;28;20375;-69
2022/04/19 00:47:25;;;;;;;10.15;7.07;;;10.90;93.70;;;;;;5072146;28;20119;-69
2022/04/19 00:49:51;;;;;;;11.43;7.35;;;;;;;;;;5070430;28;20115;-69
2022/04/19 00:52:18;;;;;;;15.20;7.50;;;11.00;93.20;;;;;;5073872;28;20520;-69
2022/04/19 00:54:44;;;;;;;12.32;6.63;;;;;;;;;;5073232;28;20341;-69
2022/04/19 00:57:11;;;;;;;11.93;7.57;;;11.00;93.40;;;;;;5071961;28;20459;-69
2022/04/19 00:59:38;;;;;;;11.63;7.15;;;;;;;;;;5071357;28;20037;-69
2022/04/19 01:02:04;;;;;;;11.85;6.90;;;;;;;;;;5072332;28;20062;-69
2022/04/19 01:04:30;;;;;;;11.50;7.45;;;;;;;;;;5071947;28;20135;-69
2022/04/19 01:06:57;;;;;;;10.57;6.85;;;10.60;94.70;;;;;;5055265;28;20119;-69
2022/04/19 01:09:24;;;;;;;12.45;7.28;;;10.70;94.30;;;;;;5072570;28;20123;-69
2022/04/19 01:14:39;;;;;;;9.90;6.53;;;;;;;;;;5073148;28;20078;-68
2022/04/19 01:17:07;;;;;;;9.50;6.38;;;10.60;95.00;;;;;;5073214;28;20047;-68
2022/04/19 01:19:35;;;;;;;10.32;6.55;;;10.60;95.20;;;;;;5072614;28;20043;-69
2022/04/19 01:22:00;;;;;;;9.57;6.50;;;10.50;95.30;;;;;;5072993;28;20098;-69
2022/04/19 01:24:27;;;;;;;8.65;6.53;;;10.50;94.40;;;;;;5072662;28;20044;-69
2022/04/19 01:26:57;;;;;;;11.77;6.13;;;10.40;95.00;;;;;;5071459;28;20043;-69
2022/04/19 01:29:24;;;;;;;9.77;6.65;;;10.40;94.70;;;;;;5070849;28;20045;-69
2022/04/19 01:31:51;;;;;;;10.15;6.45;;;10.20;94.60;;;;;;5071831;28;20477;-69
2022/04/19 01:34:18;;;;;;;10.52;6.82;;;10.20;95.80;;;;;;5072769;28;20032;-69
2022/04/19 01:36:44;;;;;;;10.07;6.38;;;;;;;;;;5071183;28;20414;-69
2022/04/19 01:39:11;;;;;;;11.50;7.15;;;10.40;94.90;;;;;;5070557;28;20406;-69
2022/04/19 01:41:38;;;;;;;12.43;7.45;;;10.30;95.10;;;;;;5072690;28;20156;-68
2022/04/19 01:44:05;;;;;;;11.15;7.75;;;10.00;95.50;;;;;;5071283;28;20036;-69
2022/04/19 01:46:33;;;;;;;11.93;7.53;;;10.00;95.20;;;;;;5070942;28;20036;-69
2022/04/19 01:49:02;;;;;;;8.80;7.25;;;10.30;95.60;;;;;;5070845;28;20053;-69
2022/04/19 01:51:28;;;;;;;10.73;7.70;;;;;;;;;;5053927;28;20040;-69
2022/04/19 01:53:55;;;;;;;11.48;7.13;;;;;;;;;;5071379;28;20033;-69
2022/04/19 01:56:21;;;;;;;10.20;7.13;;;10.00;96.70;;;;;;5072316;28;20040;-68
2022/04/19 01:58:48;;;;;;;10.52;7.43;;;10.00;96.70;;;;;;5071266;28;20400;-69
2022/04/19 02:01:14;;;;;;;11.00;7.88;;;;;;;;;;5070018;28;20051;-69
2022/04/19 02:03:40;;;;;;;14.45;7.82;;;;;;;;;;5072047;28;20418;-68
2022/04/19 02:06:12;;;;;;;10.60;7.60;;;9.70;95.70;;;;;;5072064;28;20488;-68
2022/04/19 02:08:38;;;;;;;11.30;7.53;;;;;;;;;;5070852;28;20124;-69
2022/04/19 02:11:04;;;;;;;15.38;8.63;;;9.80;96.50;;;;;;5053542;28;20468;-69
2022/04/19 02:13:31;;;;;;;12.25;8.02;;;;;;;;;;5070779;28;20159;-69
2022/04/19 02:15:58;;;;;;;10.88;7.20;;;;;;;;;;5070905;28;20090;-69
2022/04/19 02:18:25;;;;;;;14.95;8.32;;;9.80;96.40;;;;;;5070255;28;20045;-69
2022/04/19 02:20:51;;;;;;;14.10;8.00;;;;;;;;;;5053205;28;20091;-70
2022/04/19 02:23:17;;;;;;;12.32;7.90;;;;;;;;;;5065369;28;20029;-69
2022/04/19 02:25:43;;;;;;;12.52;8.05;;;9.80;96.60;;;;;;5071043;28;20348;-69
2022/04/19 02:28:10;;;;;;;11.27;8.73;;;;;;;;;;5070354;28;20145;-69
2022/04/19 02:30:36;;;;;;;13.45;9.10;;;9.50;98.50;;;;;;5070351;28;20402;-69
2022/04/19 02:33:02;;;;;;;12.90;9.15;;;9.50;98.70;;;;;;5070098;28;20120;-69
2022/04/19 02:35:28;;;;;;;12.93;8.70;;;9.50;98.80;;;;;;5070215;28;20115;-69
2022/04/19 02:37:56;;;;;;;15.15;8.43;;;9.50;99.00;;;;;;5070093;28;20047;-69
2022/04/19 02:40:23;;;;;;;13.85;8.90;;;9.50;99.00;;;;;;5070687;28;20379;-69
2022/04/19 02:42:50;;;;;;;13.02;9.32;;;9.60;98.00;;;;;;5071545;28;20075;-68
2022/04/19 02:45:19;;;;;;;15.88;9.70;;;;;;;;;;5071154;28;20041;-69
2022/04/19 02:47:45;;;;;;;14.75;9.30;;;9.60;99.00;;;;;;5080287;28;20040;-69
2022/04/19 02:50:11;;;;;;;13.27;8.98;;;;;;;;;;5073300;28;20040;-69
2022/04/19 02:52:37;;;;;;;12.13;9.18;;;;;;;;;;5083807;28;20035;-69
2022/04/19 02:55:03;;;;;;;14.63;9.30;;;;;;;;;;5072589;28;20036;-69
2022/04/19 02:57:29;;;;;;;12.38;8.55;;;;;;;;;;5091525;28;20046;-70
2022/04/19 02:59:55;;;;;;;13.48;9.18;;;;;;;;;;5088056;28;20044;-69
2022/04/19 03:02:21;;;;;;;11.52;8.30;;;;;;;;;;5073526;28;20052;-69
2022/04/19 03:04:47;;;;;;;14.23;9.07;;;;;;;;;;5072341;28;20045;-69
2022/04/19 03:07:16;;;;;;;12.35;8.40;;;;;;;;;;5071574;28;20131;-69
2022/04/19 03:09:42;;;;;;;11.65;7.90;;;9.30;99.40;;;;;;5084949;28;20043;-69
2022/04/19 03:12:10;;;;;;;13.75;8.40;;;;;;;;;;5089725;28;20074;-69
2022/04/19 03:14:36;;;;;;;13.75;9.32;;;;;;;;;;5089628;28;20568;-69
2022/04/19 03:17:02;;;;;;;17.33;9.43;;;;;;;;;;5089866;28;20040;-69
2022/04/19 03:19:28;;;;;;;14.15;8.73;;;;;;;;;;5090400;28;20171;-69
2022/04/19 03:21:53;;;;;;;15.40;9.55;;;9.00;99.90;;;;;;5089854;28;20202;-69
2022/04/19 03:29:48;;;;;;;16.45;9.63;;;;;;;;;;5085472;28;20124;-70
2022/04/19 03:32:15;;;;;;;14.65;9.07;;;9.10;99.90;;;;;;5069235;28;20036;-69
2022/04/19 03:34:41;;;;;;;15.23;9.20;;;9.00;99.90;;;;;;5070792;28;20051;-69
2022/04/19 03:37:06;;;;;;;15.90;9.68;;;9.10;99.90;;;;;;5070649;28;20407;-70
2022/04/19 03:39:32;;;;;;;13.60;9.52;;;;;;;;;;5068353;28;20040;-69
2022/04/19 03:41:58;;;;;;;15.35;9.02;;;9.20;99.90;;;;;;5068818;28;20119;-69
2022/04/19 03:44:29;;;;;;;20.55;11.38;;;;;;;;;;5069159;28;20124;-70
2022/04/19 03:47:07;;;;;;;18.42;10.57;;;9.00;99.90;;;;;;5070611;28;20040;-70
2022/04/19 03:49:34;;;;;;;15.40;9.85;;;9.10;99.90;;;;;;5068836;28;20071;-69
2022/04/19 03:52:00;;;;;;;17.48;10.15;;;9.10;99.90;;;;;;5112048;22;20171;-69
2022/04/19 03:54:25;;;;;;;15.50;9.32;;;9.30;99.90;;;;;;5072686;28;20417;-69
2022/04/19 03:56:51;;;;;;;15.02;9.25;;;9.00;99.90;;;;;;5091291;28;20036;-69
2022/04/19 03:59:18;;;;;;;15.23;9.23;;;;;;;;;;5090191;28;20093;-69
2022/04/19 04:01:44;;;;;;;14.13;8.88;;;9.10;99.90;;;;;;5084870;28;20127;-69
2022/04/19 04:04:10;;;;;;;15.57;9.82;;;9.10;99.90;;;;;;5090865;28;20119;-69
2022/04/19 04:06:36;;;;;;;16.13;9.40;;;9.20;99.90;;;;;;5072725;28;20086;-70
2022/04/19 04:09:03;;;;;;;18.17;10.13;;;9.10;99.90;;;;;;5090311;28;20081;-69
2022/04/19 04:11:29;;;;;;;16.52;9.13;;;9.20;99.90;;;;;;5089302;28;20040;-69
2022/04/19 04:13:55;;;;;;;12.23;8.93;;;;;;;;;;5089399;28;20418;-69
2022/04/19 04:16:21;;;;;;;14.68;8.65;;;9.00;99.90;;;;;;5090768;28;20036;-69
2022/04/19 04:18:46;;;;;;;13.52;8.88;;;9.00;99.90;;;;;;5072598;28;20044;-69
2022/04/19 04:21:12;;;;;;;15.90;9.25;;;9.00;99.90;;;;;;5072106;28;20044;-69
2022/04/19 04:23:37;;;;;;;12.43;8.32;;;8.80;99.90;;;;;;5089308;28;20048;-69
2022/04/19 04:26:03;;;;;;;14.63;9.18;;;9.10;99.90;;;;;;5089507;28;20036;-69
2022/04/19 04:28:28;;;;;;;14.75;9.27;;;8.80;99.90;;;;;;5072714;28;20081;-69
2022/04/19 04:30:54;;;;;;;15.75;9.15;;;9.00;99.90;;;;;;5090083;28;20028;-69
2022/04/19 04:33:21;;;;;;;16.15;9.90;;;9.00;99.90;;;;;;5090720;28;20036;-70
2022/04/19 04:35:47;;;;;;;18.15;9.82;;;8.70;99.90;;;;;;5089270;28;20036;-69
2022/04/19 04:38:13;;;;;;;19.83;10.63;;;8.90;99.90;;;;;;5087346;28;20406;-69
2022/04/19 04:40:39;;;;;;;22.38;10.75;;;9.10;99.90;;;;;;5067684;28;20082;-71
2022/04/19 04:43:04;;;;;;;17.70;11.38;;;9.00;99.90;;;;;;5079581;28;20431;-69
2022/04/19 04:45:30;;;;;;;17.70;10.38;;;9.00;99.90;;;;;;5076616;28;20049;-69
2022/04/19 04:50:40;;;;;;;21.10;11.68;;;9.00;99.90;;;;;;5084697;28;20132;-70
2022/04/19 04:53:06;;;;;;;15.60;9.98;;;8.80;99.90;;;;;;5089615;28;20137;-70
2022/04/19 04:55:31;;;;;;;14.48;9.55;;;8.90;99.90;;;;;;5071147;28;20555;-69
2022/04/19 04:58:01;;;;;;;15.40;9.90;;;9.00;99.90;;;;;;5091220;28;20145;-70
2022/04/19 05:00:29;;;;;;;17.25;10.52;;;8.70;99.90;;;;;;5093558;28;20050;-69
2022/04/19 05:02:55;;;;;;;18.40;11.27;;;;;;;;;;5094129;28;20032;-69
2022/04/19 05:05:21;;;;;;;15.65;9.85;;;8.90;99.90;;;;;;5086084;28;20090;-69
2022/04/19 05:07:47;;;;;;;12.75;8.65;;;8.80;99.90;;;;;;5072441;28;20071;-69
2022/04/19 05:10:14;;;;;;;17.20;10.25;;;8.90;99.90;;;;;;5071499;28;20033;-70
2022/04/19 05:12:39;;;;;;;17.63;9.70;;;8.80;99.90;;;;;;5072342;28;20414;-69
2022/04/19 05:15:06;;;;;;;15.05;9.40;;;8.90;99.90;;;;;;5072280;28;20036;-69
2022/04/19 05:17:32;;;;;;;14.25;9.55;;;9.00;99.90;;;;;;5055296;28;20150;-70
2022/04/19 05:19:57;;;;;;;13.50;8.90;;;9.00;99.90;;;;;;5072888;28;20107;-69
2022/04/19 05:22:23;;;;;;;15.15;8.43;;;9.00;99.90;;;;;;5077899;28;20044;-68
2022/04/19 05:24:49;;;;;;;14.77;8.25;;;8.90;99.90;;;;;;5073176;28;20051;-70
2022/04/19 05:27:15;;;;;;;14.43;9.43;;;8.90;99.90;;;;;;5073498;28;20047;-70
2022/04/19 05:29:40;;;;;;;13.82;8.95;;;9.10;99.90;;;;;;5072514;28;20786;-69
2022/04/19 05:32:06;;;;;;;13.75;8.48;;;9.00;99.90;;;;;;5073354;28;20771;-70
2022/04/19 05:34:32;;;;;;;15.10;9.27;;;9.00;99.90;;;;;;5071811;28;20029;-69
2022/04/19 05:36:57;;;;;;;15.30;9.27;;;9.10;99.90;;;;;;5071978;28;20040;-69
2022/04/19 05:39:23;;;;;;;12.07;8.45;;;9.20;99.90;;;;;;5070587;28;20113;-70
2022/04/19 05:41:49;;;;;;;12.35;8.15;;;9.20;99.90;;;;;;5072313;28;20036;-69
2022/04/19 05:44:14;;;;;;;16.55;8.75;;;9.50;99.90;;;;;;5060832;28;20055;-70
2022/04/19 05:46:40;;;;;;;16.35;8.48;;;9.70;99.90;;;;;;5073781;28;20052;-70
2022/04/19 05:49:06;;;;;;;13.38;8.45;;;9.80;99.90;;;;;;5073092;28;20032;-70
2022/04/19 05:51:34;;;;;;;13.43;8.63;;;9.60;99.90;;;;;;5071955;28;20075;-71
2022/04/19 05:54:00;;;;;;;16.23;9.40;;;9.50;99.90;;;;;;5071413;28;20035;-70
2022/04/19 05:56:26;;;;;;;13.57;8.32;;;10.30;99.90;;;;;;5082497;28;20096;-70
2022/04/19 05:58:52;;;;;;;14.45;7.75;;;9.50;99.90;;;;;;5095552;28;20072;-67
2022/04/19 06:01:18;;;;;;;13.18;8.52;;;9.80;99.90;;;;;;5094991;28;20059;-70
2022/04/19 06:06:28;;;;;;;11.80;8.07;;;9.70;99.90;;;;;;5059446;28;20099;-71
2022/04/19 06:08:54;;;;;;;12.05;8.30;;;9.90;99.90;;;;;;5077856;28;20412;-69
2022/04/19 06:11:20;;;;;;;14.40;9.57;;;9.90;99.90;;;;;;5086021;28;20113;-70
2022/04/19 06:13:46;;;;;;;12.07;8.30;;;9.90;99.90;;;;;;5067136;28;20433;-69
2022/04/19 06:16:11;;;;;;;14.07;9.32;;;9.90;99.90;;;;;;5049822;28;20033;-68
2022/04/19 06:18:37;;;;;;;13.25;7.82;;;10.00;99.90;;;;;;5052112;28;20040;-72
2022/04/19 06:21:05;;;;;;;15.10;9.05;;;10.10;99.90;;;;;;5072964;28;20626;-69
2022/04/19 06:23:32;;;;;;;14.52;7.95;;;10.00;99.90;;;;;;5058776;28;20094;-69
2022/04/19 06:25:58;;;;;;;13.07;8.18;;;10.20;99.90;;;;;;5086817;28;20523;-70
2022/04/19 06:28:24;;;;;;;13.18;8.32;;;10.30;99.90;;;;;;5088414;28;20044;-70
2022/04/19 06:30:49;;;;;;;14.00;8.38;;;10.30;99.90;;;;;;5087571;28;20046;-67
2022/04/19 06:33:15;;;;;;;12.20;7.85;;;10.40;99.90;;;;;;5078439;28;20487;-69
2022/04/19 06:35:41;;;;;;;13.48;8.02;;;10.40;99.90;;;;;;5069680;28;20075;-69
2022/04/19 06:38:07;;;;;;;15.73;8.05;;;10.60;99.90;;;;;;5067744;28;20111;-70
2022/04/19 06:40:33;;;;;;;12.38;8.15;;;10.50;99.90;;;;;;5066800;28;20483;-70
2022/04/19 06:42:59;;;;;;;11.65;8.23;;;10.70;99.90;;;;;;5076775;28;20037;-69
2022/04/19 06:45:24;;;;;;;11.55;7.68;;;10.70;99.90;;;;;;5067782;28;20098;-69
2022/04/19 06:48:01;;;;;;;13.55;8.27;;;10.60;99.90;;;;;;5070675;28;20071;-69
2022/04/19 06:50:27;;;;;;;12.82;8.40;;;;;;;;;;5066601;28;20050;-69
2022/04/19 06:52:53;;;;;;;11.43;8.07;;;10.90;99.90;;;;;;5070580;28;20033;-69
2022/04/19 06:55:20;;;;;;;12.75;7.55;;;10.90;99.90;;;;;;5060273;28;20106;-69
2022/04/19 06:57:46;;;;;;;13.38;8.00;;;10.90;99.90;;;;;;5067566;28;20058;-70
2022/04/19 07:00:13;;;;;;;13.45;8.15;;;11.10;99.90;;;;;;5069172;28;20383;-69
2022/04/19 07:02:39;;;;;;;12.85;7.95;;;11.00;99.90;;;;;;5070971;28;20468;-69
2022/04/19 07:05:05;;;;;;;10.90;7.90;;;11.20;99.90;;;;;;5069815;28;20044;-69
2022/04/19 07:07:32;;;;;;;15.27;8.20;;;11.30;99.90;;;;;;5053513;28;20051;-69
2022/04/19 07:09:58;;;;;;;16.02;8.30;;;11.30;99.90;;;;;;5069046;28;20108;-69
2022/04/19 07:12:23;;;;;;;12.95;8.48;;;11.40;99.90;;;;;;5069235;28;20456;-69
2022/04/19 07:14:50;;;;;;;14.25;8.48;;;11.60;99.90;;;;;;5069041;28;20043;-68
2022/04/19 07:17:16;;;;;;;15.73;9.10;;;11.50;99.90;;;;;;5069231;28;20040;-69
2022/04/19 07:28:03;;;;;;;13.52;7.78;;;11.90;99.90;;;;;;5070835;28;20494;-69
2022/04/19 07:30:29;;;;;;;10.98;7.20;;;11.90;99.90;;;;;;5070536;28;20067;-69
2022/04/19 07:33:00;;;;;;;14.07;8.90;;;12.10;99.90;;;;;;5070163;28;20036;-69
2022/04/19 07:35:25;;;;;;;12.40;7.20;;;12.10;99.90;;;;;;5053289;28;20036;-69
2022/04/19 07:37:51;;;;;;;14.75;8.13;;;12.30;99.90;;;;;;5070708;28;20036;-69
2022/04/19 07:40:17;;;;;;;10.73;7.25;;;12.20;99.90;;;;;;5052183;28;20044;-69
2022/04/19 07:42:42;;;;;;;12.15;7.45;;;12.40;99.90;;;;;;5071023;28;20044;-69
2022/04/19 07:45:09;;;;;;;13.82;7.80;;;12.40;99.90;;;;;;5070180;28;20045;-71
2022/04/19 07:47:34;;;;;;;11.10;7.10;;;12.60;99.90;;;;;;5069510;28;20552;-71
2022/04/19 07:50:01;;;;;;;15.02;8.50;;;12.70;99.90;;;;;;5067594;28;20166;-70
2022/04/19 07:52:26;;;;;;;13.10;7.97;;;13.00;99.90;;;;;;5063758;28;20040;-72
2022/04/19 07:54:52;;;;;;;12.77;7.63;;;12.90;99.90;;;;;;5045976;28;20495;-71
2022/04/19 07:57:21;;;;;;;12.90;7.88;;;13.00;99.90;;;;;;5064168;28;20037;-71
2022/04/19 07:59:47;;;;;;;14.25;9.15;;;13.20;99.90;;;;;;5048829;28;20094;-71
2022/04/19 08:02:14;;;;;;;13.57;8.00;;;13.20;99.90;;;;;;5050479;28;20126;-74
2022/04/19 08:04:40;;;;;;;14.02;7.93;;;13.40;99.90;;;;;;5054260;28;20048;-71
2022/04/19 08:07:06;;;;;;;13.45;7.95;;;13.40;99.90;;;;;;5070297;28;20051;-69
2022/04/19 08:09:32;;;;;;;11.55;6.97;;;13.20;99.90;;;;;;5069485;28;20041;-70
2022/04/19 08:11:58;;;;;;;12.95;7.88;;;13.30;99.90;;;;;;5069604;28;20808;-69
2022/04/19 08:14:23;;;;;;;11.00;7.40;;;13.50;99.90;;;;;;5070705;28;20068;-69
2022/04/19 08:16:49;;;;;;;12.52;7.07;;;13.50;99.90;;;;;;5061368;28;20092;-69
2022/04/19 08:19:15;;;;;;;10.55;6.30;;;13.60;99.90;;;;;;5068397;28;20044;-69
2022/04/19 08:21:40;;;;;;;11.55;6.53;;;13.70;99.90;;;;;;5068043;28;20074;-70
2022/04/19 08:24:06;;;;;;;13.18;7.45;;;13.80;99.90;;;;;;5065415;28;20544;-69
2022/04/19 08:26:32;;;;;;;13.48;7.03;;;13.80;99.90;;;;;;5062204;28;20040;-69
2022/04/19 08:28:57;;;;;;;11.80;6.47;;;14.00;98.60;;;;;;5042487;28;20094;-70
2022/04/19 08:31:23;;;;;;;9.55;6.10;;;;;;;;;;5047441;28;20103;-70
2022/04/19 08:33:49;;;;;;;11.20;6.63;;;;;;;;;;5059339;28;20114;-71
2022/04/19 08:36:15;;;;;;;11.13;6.72;;;;;;;;;;5070192;28;20033;-70
2022/04/19 08:38:41;;;;;;;9.20;5.68;;;;;;;;;;5071237;28;20127;-70
2022/04/19 08:41:07;;;;;;;9.77;5.53;;;14.50;97.90;;;;;;5068477;28;20036;-69
2022/04/19 08:43:34;;;;;;;10.27;5.22;;;14.60;97.90;;;;;;5071925;28;20099;-70
2022/04/19 08:46:01;;;;;;;9.15;5.32;;;14.70;96.80;;;;;;5071474;28;20070;-70
2022/04/19 08:48:27;;;;;;;7.38;5.13;;;;;;;;;;5070806;28;20127;-69
2022/04/19 08:50:55;;;;;;;6.47;4.25;;;14.80;96.00;;;;;;5059104;28;20125;-70
2022/04/19 08:58:51;;;;;;;6.35;3.47;;;;;;;;;;5072065;28;20567;-70
2022/04/19 09:01:17;;;;;;;6.18;3.33;;;;;;;;;;5070681;28;20078;-70
2022/04/19 09:03:43;;;;;;;7.55;3.60;;;;;;;;;;5060019;28;20483;-71
2022/04/19 09:06:10;;;;;;;8.45;4.22;;;15.30;96.50;;;;;;5045895;28;20413;-71
2022/04/19 09:08:35;;;;;;;5.80;3.53;;;15.40;96.50;;;;;;5066031;28;20045;-72
2022/04/19 09:11:08;;;;;;;7.63;4.10;;;15.60;95.40;;;;;;5071255;28;20055;-71
2022/04/19 09:13:35;;;;;;;7.35;3.50;;;15.40;96.10;;;;;;5076626;28;20059;-70
2022/04/19 09:16:05;;;;;;;6.65;3.70;;;15.60;95.30;;;;;;5053120;28;20036;-70
2022/04/19 09:18:33;;;;;;;6.93;3.85;;;15.70;95.60;;;;;;5052195;28;20041;-71
2022/04/19 09:21:00;;;;;;;12.75;5.00;;;15.60;95.60;;;;;;5034951;28;20099;-70
2022/04/19 09:23:29;;;;;;;9.13;4.97;;;15.60;95.50;;;;;;5034883;28;20037;-70
2022/04/19 09:26:00;;;;;;;8.02;4.88;;;15.80;95.30;;;;;;5052635;28;20460;-71
2022/04/19 09:28:27;;;;;;;10.77;5.38;;;15.80;95.60;;;;;;5052303;28;20045;-71
2022/04/19 09:30:58;;;;;;;7.65;4.60;;;17.00;95.80;;;;;;5052780;28;20076;-71
2022/04/19 09:33:26;;;;;;;11.75;4.85;;;16.00;95.80;;;;;;5052318;28;20124;-71
2022/04/19 09:36:00;;;;;;;5.90;4.15;;;16.10;96.30;;;;;;5035956;28;20033;-71
2022/04/19 09:38:38;;;;;;;10.05;4.80;;;16.30;95.80;;;;;;5057328;28;20047;-71
2022/04/19 09:41:05;;;;;;;8.25;4.65;;;16.20;95.80;;;;;;5042594;28;20047;-71
2022/04/19 09:43:32;;;;;;;7.20;3.97;;;16.40;95.30;;;;;;5064863;28;20041;-70
2022/04/19 09:45:59;;;;;;;6.60;3.65;;;16.30;95.40;;;;;;5067703;28;20044;-69
2022/04/19 09:48:27;;;;;;;4.55;3.10;;;16.20;95.00;;;;;;5073338;28;20045;-70
2022/04/19 09:51:17;;;;;;;4.88;3.42;;;17.10;95.30;;;;;;5095072;22;20040;-69
2022/04/19 09:53:45;;;;;;;5.22;3.05;;;16.30;94.80;;;;;;5062447;28;20045;-70
2022/04/19 09:56:13;;;;;;;6.00;3.10;;;16.40;94.40;;;;;;5034952;28;20075;-70
2022/04/19 09:58:41;;;;;;;6.07;2.33;;;16.60;94.10;;;;;;5052827;28;20094;-70
2022/04/19 10:01:07;;;;;;;4.97;3.13;;;16.50;93.50;;;;;;5051857;28;20051;-70
2022/04/19 10:09:04;;;;;;;3.78;1.42;;;16.40;93.10;;;;;;5034452;28;20102;-69
2022/04/19 10:11:29;;;;;;;2.00;1.30;;;16.50;90.40;;;;;;5034112;28;20123;-70
2022/04/19 10:13:56;;;;;;;3.92;1.63;;;16.70;90.20;;;;;;5034425;28;20120;-70
2022/04/19 10:16:23;;;;;;;2.30;1.60;;;16.50;89.30;;;;;;5018225;28;20043;-70
2022/04/19 10:18:48;;;;;;;4.03;1.77;;;16.30;89.10;;;;;;5034707;28;20449;-70
2022/04/19 10:21:24;;;;;;;4.25;1.40;;;16.60;90.20;;;;;;5033780;28;20041;-70
2022/04/19 10:23:50;;;;;;;2.78;1.60;;;16.50;90.10;;;;;;5041899;28;20047;-69
2022/04/19 10:26:24;;;;;;;6.85;1.52;;;16.50;90.60;;;;;;5049963;28;20066;-70
2022/04/19 10:28:52;;;;;;;2.40;1.40;;;16.80;90.00;;;;;;5054453;28;20453;-70
2022/04/19 10:31:31;;;;;;;3.17;1.52;;;16.80;90.00;;;;;;5027991;28;20048;-70
2022/04/19 10:34:02;;;;;;;3.65;1.60;;;16.90;90.40;;;;;;5068419;28;20111;-69
2022/04/19 10:36:38;;;;;;;3.47;1.65;;;16.80;90.40;;;;;;5053939;28;20040;-70
2022/04/19 10:39:13;;;;;;;2.65;1.75;;;17.10;90.20;;;;;;5037170;28;20039;-68
2022/04/19 10:42:32;;;;;;;3.42;1.80;;;17.20;91.00;;;;;;5071814;28;20041;-69
2022/04/19 10:45:18;;;;;;;5.47;1.20;;;17.00;90.10;;;;;;5021327;28;20066;-68
2022/04/19 10:47:53;;;;;;;4.85;1.60;;;17.10;90.80;;;;;;5016902;28;20049;-68
2022/04/19 10:50:28;;;;;;;3.70;1.60;;;17.30;90.90;;;;;;5051074;28;20041;-70
2022/04/19 10:52:59;;;;;;;3.33;1.63;;;17.20;91.50;;;;;;5033398;28;20048;-70
2022/04/19 10:55:27;;;;;;;5.85;1.85;;;17.30;91.30;;;;;;5032673;28;20033;-70
2022/04/19 10:58:09;;;;;;;4.43;1.70;;;17.20;91.30;;;;;;5051570;28;20053;-70
2022/04/19 11:00:34;;;;;;;3.15;1.55;;;17.10;91.40;;;;;;5033092;28;20380;-70
2022/04/19 11:03:02;;;;;;;1.67;1.20;;;17.50;91.60;;;;;;5051985;28;20051;-68
2022/04/19 11:05:36;;;;;;;4.40;1.88;;;17.50;91.40;;;;;;5051648;28;20045;-68
2022/04/19 11:08:24;;;;;;;6.07;1.92;;;17.60;91.60;;;;;;5051082;28;20521;-68
2022/04/19 11:11:22;;;;;;;3.53;1.70;;;17.80;91.00;;;;;;5033542;28;20447;-68
2022/04/19 11:14:36;;;;;;;5.03;1.50;;;17.40;90.70;;;;;;5033869;28;20131;-68
2022/04/19 11:17:18;;;;;;;;;;;17.60;91.20;;;;;;5049567;28;20052;-68
2022/04/19 11:20:11;;;;;;;2.10;1.33;;;17.60;91.20;;;;;;5051258;28;20282;-70
2022/04/19 11:22:47;;;;;;;2.28;1.20;;;17.80;90.40;;;;;;5072027;28;20055;-70
2022/04/19 11:25:13;;;;;;;1.65;1.10;;;17.50;89.40;;;;;;5072628;28;20051;-70
2022/04/19 11:27:53;;;;;;;3.28;1.35;;;17.60;90.10;;;;;;5053320;28;20040;-70
2022/04/19 11:30:24;;;;;;;3.20;1.60;;;17.60;90.10;;;;;;5070648;28;20072;-70
2022/04/19 11:32:52;;;;;;;2.42;1.35;;;17.60;90.60;;;;;;5053533;28;20062;-68
2022/04/19 11:35:18;;;;;;;6.07;1.88;;;17.80;91.10;;;;;;5053331;28;20123;-68
2022/04/19 11:37:44;;;;;;;3.78;1.73;;;17.70;91.10;;;;;;5071024;28;20048;-68
2022/04/19 11:48:47;;;;;;;3.90;1.80;;;18.10;90.80;;;;;;5070929;28;20076;-69
2022/04/19 11:51:14;;;;;;;2.47;1.63;;;18.20;91.40;;;;;;5061005;28;20041;-69
2022/04/19 11:53:41;;;;;;;6.05;1.88;;;18.00;92.20;;;;;;5043073;28;20059;-69
2022/04/19 11:56:07;;;;;;;5.30;2.72;;;18.10;91.90;;;;;;5043349;28;20115;-69
2022/04/19 11:58:33;;;;;;;6.35;2.15;;;18.10;91.90;;;;;;5041192;28;20037;-69
2022/04/19 12:01:10;;;;;;;3.20;2.30;;;18.10;92.30;;;;;;5066853;28;20094;-68
2022/04/19 12:03:38;;;;;;;6.50;2.63;;;18.10;91.90;;;;;;5049232;28;20094;-68
2022/04/19 12:06:11;;;;;;;4.47;2.40;;;18.30;92.30;;;;;;5075049;28;20124;-69
2022/04/19 12:08:42;;;;;;;4.07;2.47;;;18.20;91.40;;;;;;5040148;28;20119;-69
2022/04/19 12:11:10;;;;;;;6.90;2.10;;;18.10;91.00;;;;;;5056115;28;20402;-69
2022/04/19 12:13:37;;;;;;;2.90;2.17;;;18.20;91.30;;;;;;5023557;28;20514;-69
2022/04/19 12:16:04;;;;;;;3.67;2.53;;;17.80;91.40;;;;;;5040146;28;20067;-69
2022/04/19 12:18:37;;;;;;;4.75;2.38;;;18.30;91.60;;;;;;5074802;28;20512;-69
2022/04/19 12:21:03;;;;;;;;;;;18.30;91.40;;;;;;5056364;28;20044;-69
2022/04/19 12:23:29;;;;;;;2.45;2.00;;;18.20;91.50;;;;;;5056509;28;19923;-69
2022/04/19 12:26:10;;;;;;;2.70;2.08;;;18.10;91.70;;;;;;5056906;28;20482;-69
2022/04/19 12:28:46;;;;;;;5.55;2.63;;;18.20;91.70;;;;;;5040069;28;20037;-69
2022/04/19 12:31:39;;;;;;;3.22;2.38;;;18.10;91.90;;;;;;5073567;28;20406;-68
2022/04/19 12:34:06;;;;;;;2.63;2.00;;;18.40;91.90;;;;;;5064432;28;20129;-69
2022/04/19 12:37:12;;;;;;;3.63;2.47;;;18.40;91.20;;;;;;5057689;28;20592;-69
2022/04/19 12:39:39;;;;;;;5.25;2.42;;;18.60;90.30;;;;;;5030482;28;20049;-69
2022/04/19 12:42:09;;;;;;;6.25;2.42;;;18.50;90.50;;;;;;5030336;28;20032;-69
2022/04/19 12:44:36;;;;;;;5.57;2.60;;;18.50;90.10;;;;;;5074104;28;20060;-69
2022/04/19 12:47:19;;;;;;;5.25;3.20;;;18.40;90.70;;;;;;5056723;28;20040;-69
2022/04/19 12:49:48;;;;;;;5.65;2.90;;;18.50;90.40;;;;;;5049548;28;20032;-69
2022/04/19 12:52:14;;;;;;;4.68;2.55;;;18.30;90.60;;;;;;5055421;28;20490;-69
2022/04/19 12:54:43;;;;;;;3.10;2.53;;;18.40;91.20;;;;;;5056258;28;20106;-69
2022/04/19 12:57:14;;;;;;;6.75;2.55;;;18.80;90.80;;;;;;5055681;28;20045;-69
2022/04/19 12:59:43;;;;;;;2.92;1.95;;;18.40;90.80;;;;;;5073131;28;20124;-69
2022/04/19 13:02:09;;;;;;;2.72;1.80;;;18.60;90.30;;;;;;5073672;28;20394;-69
2022/04/19 13:04:35;;;;;;;3.97;2.67;;;18.30;90.30;;;;;;5073927;28;20079;-69
2022/04/19 13:12:30;;;;;;;3.05;1.80;;;18.20;89.30;;;;;;5073670;28;20126;-69
2022/04/19 13:15:00;;;;;;;4.55;1.83;;;18.40;90.60;;;;;;5055305;28;20043;-69
2022/04/19 13:17:27;;;;;;;3.15;1.75;;;18.70;90.30;;;;;;5055577;28;20036;-69
2022/04/19 13:19:53;;;;;;;3.78;1.95;;;18.70;90.10;;;;;;5067020;28;20524;-69
2022/04/19 13:22:19;;;;;;;3.38;2.30;;;19.00;90.80;;;;;;5038256;28;20124;-69
2022/04/19 13:24:44;;;;;;;3.10;1.85;;;18.30;89.90;;;;;;5035593;28;20041;-69
2022/04/19 13:27:11;;;;;;;3.90;2.75;;;18.50;89.40;;;;;;5035350;28;20041;-69
2022/04/19 13:29:39;;;;;;;3.40;2.63;;;18.40;89.60;;;;;;5034537;28;20098;-69
2022/04/19 13:32:06;;;;;;;3.90;1.85;;;18.40;90.00;;;;;;5035360;28;20126;-69
2022/04/19 13:34:32;;;;;;;3.30;2.00;;;18.60;90.10;;;;;;5035102;28;20044;-69
2022/04/19 13:36:58;;;;;;;3.15;1.70;;;18.60;90.20;;;;;;5037921;28;20052;-68
2022/04/19 13:39:24;;;;;;;5.75;2.08;;;18.80;90.20;;;;;;5049726;28;20056;-69
2022/04/19 13:41:50;;;;;;;2.63;2.10;;;18.70;90.10;;;;;;5055089;28;20557;-69
2022/04/19 13:44:17;;;;;;;2.53;1.70;;;18.80;90.10;;;;;;5072917;28;20123;-69
2022/04/19 13:46:44;;;;;;;4.78;2.40;;;18.60;90.30;;;;;;5072711;28;20528;-69
2022/04/19 13:49:10;;;;;;;3.33;2.10;;;18.60;90.20;;;;;;5053986;28;20036;-69
2022/04/19 13:51:39;;;;;;;3.05;2.28;;;18.50;90.20;;;;;;5054585;28;20056;-69